createdAt,value
2023-04-26T00:00:41.195Z,1.2
2023-04-26T00:04:41.043Z,1
2023-04-26T00:08:40.414Z,1.5
2023-04-26T00:12:41.157Z,1.2
2023-04-26T00:16:40.620Z,1.23
2023-04-26T00:20:40.449Z,1.53
2023-04-26T00:24:40.452Z,0.9
2023-04-26T00:28:40.531Z,0.9
2023-04-26T00:32:40.588Z,1.1
2023-04-26T00:36:40.391Z,1.37
2023-04-26T00:40:40.471Z,1
2023-04-26T00:44:40.598Z,1.5
2023-04-26T00:48:40.540Z,1.03
2023-04-26T00:52:40.414Z,2.7
2023-04-26T00:56:40.646Z,1.93
2023-04-26T01:00:40.561Z,1.4
2023-04-26T01:04:40.916Z,0.8
2023-04-26T01:08:40.605Z,1.37
2023-04-26T01:12:40.554Z,1
2023-04-26T01:16:40.898Z,1.4
2023-04-26T01:20:40.707Z,0.9
2023-04-26T01:24:40.394Z,0.7
2023-04-26T01:28:40.418Z,1.27
2023-04-26T01:32:40.654Z,1.2
2023-04-26T01:36:40.516Z,1
2023-04-26T01:40:40.861Z,1
2023-04-26T01:44:40.473Z,1.5
2023-04-26T01:48:40.273Z,2.8
2023-04-26T01:52:41.138Z,1.57
2023-04-26T01:56:40.513Z,2.17
2023-04-26T02:00:40.614Z,1.97
2023-04-26T02:04:40.462Z,1.8
2023-04-26T02:08:40.721Z,1
2023-04-26T02:12:40.536Z,1.97
2023-04-26T02:16:40.645Z,1.3
2023-04-26T02:20:39.817Z,1.4
2023-04-26T02:24:40.560Z,1.77
2023-04-26T02:28:40.423Z,1.9
2023-04-26T02:32:40.457Z,1.37
2023-04-26T02:36:40.376Z,1.3
2023-04-26T02:40:40.562Z,1.5
2023-04-26T02:44:40.577Z,2.33
2023-04-26T02:48:40.419Z,1.47
2023-04-26T02:52:39.675Z,2.9
2023-04-26T02:56:41.067Z,1.4
2023-04-26T03:00:40.441Z,1.1
2023-04-26T03:04:40.424Z,1.77
2023-04-26T03:08:40.743Z,1.37
2023-04-26T03:12:40.850Z,1.8
2023-04-26T03:16:40.590Z,1.03
2023-04-26T03:20:40.978Z,2.17
2023-04-26T03:24:40.561Z,1.37
2023-04-26T03:28:41.214Z,1.7
2023-04-26T03:32:40.498Z,1.67
2023-04-26T03:36:40.467Z,1.77
2023-04-26T03:40:40.520Z,1.47
2023-04-26T03:44:41.113Z,2.07
2023-04-26T03:48:40.424Z,2.17
2023-04-26T03:52:40.880Z,0.97
2023-04-26T03:56:40.471Z,1.77
2023-04-26T04:00:40.588Z,2.33
2023-04-26T04:04:40.670Z,2.37
2023-04-26T04:08:39.864Z,1.8
2023-04-26T04:12:41.187Z,1.73
2023-04-26T04:16:40.513Z,2.1
2023-04-26T04:20:40.373Z,1.8
2023-04-26T04:24:41.071Z,2.3
2023-04-26T04:28:39.819Z,2
2023-04-26T04:32:40.433Z,1.97
2023-04-26T04:36:40.248Z,2.63
2023-04-26T04:40:41.153Z,3.5
2023-04-26T04:44:40.443Z,2.17
2023-04-26T04:48:40.958Z,2.2
2023-04-26T04:52:41.129Z,1.83
2023-04-26T04:56:40.543Z,1.55
2023-04-26T05:00:40.994Z,1.85
2023-04-26T05:04:41.278Z,2.4
2023-04-26T05:08:40.767Z,2.5
2023-04-26T05:12:40.470Z,1.7
2023-04-26T05:16:40.916Z,2.3
2023-04-26T05:20:40.723Z,2.58
2023-04-26T05:24:40.462Z,2.67
2023-04-26T05:28:40.983Z,1.8
2023-04-26T05:32:40.612Z,1.98
2023-04-26T05:36:40.484Z,2.7
2023-04-26T05:40:40.572Z,2.1
2023-04-26T05:44:40.423Z,2.42
2023-04-26T05:48:40.216Z,1.87
2023-04-26T05:52:40.587Z,1.92
2023-04-26T05:56:40.486Z,2.1
2023-04-26T06:00:40.533Z,1.12
2023-04-26T06:04:40.910Z,2.47
2023-04-26T06:08:39.629Z,1.23
2023-04-26T06:12:40.603Z,1.5
2023-04-26T06:16:43.000Z,1.2
2023-04-26T06:20:40.494Z,2.3
2023-04-26T06:24:40.622Z,1.83
2023-04-26T06:28:42.227Z,1.73
2023-04-26T06:32:40.831Z,1.05
2023-04-26T06:36:39.962Z,1.37
2023-04-26T06:40:40.353Z,1.98
2023-04-26T06:44:40.785Z,1.95
2023-04-26T06:48:40.450Z,1.6
2023-04-26T06:52:40.430Z,1.65
2023-04-26T06:56:40.331Z,1.45
2023-04-26T07:00:41.020Z,1.67
2023-04-26T07:04:41.258Z,0.95
2023-04-26T07:08:40.679Z,1.02
2023-04-26T07:12:40.477Z,1.4
2023-04-26T07:16:40.425Z,3.37
2023-04-26T07:20:40.737Z,1.62
2023-04-26T07:24:40.557Z,1.85
2023-04-26T07:28:40.462Z,1.6
2023-04-26T07:32:40.940Z,1.73
2023-04-26T07:36:40.456Z,1.45
2023-04-26T07:40:40.496Z,0.75
2023-04-26T07:44:40.476Z,0.95
2023-04-26T07:48:40.372Z,1.27
2023-04-26T07:52:41.349Z,1.85
2023-04-26T07:56:41.109Z,1.77
2023-04-26T08:00:40.608Z,0.85
2023-04-26T08:04:41.006Z,1.12
2023-04-26T08:08:39.486Z,1.17
2023-04-26T08:12:41.045Z,0.93
2023-04-26T08:16:40.726Z,1.1
2023-04-26T08:20:41.028Z,1.52
2023-04-26T08:24:40.736Z,1.87
2023-04-26T08:28:39.661Z,0.77
2023-04-26T08:32:40.502Z,0.65
2023-04-26T08:36:40.613Z,1.37
2023-04-26T08:40:40.753Z,1.33
2023-04-26T08:44:40.372Z,1.42
2023-04-26T08:48:40.975Z,1.8
2023-04-26T08:52:40.479Z,1.8
2023-04-26T08:56:40.634Z,1.42
2023-04-26T09:00:40.603Z,1
2023-04-26T09:04:40.831Z,1.1
2023-04-26T09:08:40.493Z,0.57
2023-04-26T09:12:40.702Z,1.42
2023-04-26T09:16:40.650Z,1.4
2023-04-26T09:20:40.715Z,1.85
2023-04-26T09:24:40.475Z,1.75
2023-04-26T09:28:39.712Z,5.72
2023-04-26T09:32:40.583Z,2.08
2023-04-26T09:36:40.505Z,1
2023-04-26T09:40:40.685Z,1.83
2023-04-26T09:44:40.467Z,1.02
2023-04-26T09:48:40.013Z,1.17
2023-04-26T09:52:40.801Z,1.1
2023-04-26T09:56:40.389Z,0.82
2023-04-26T10:00:40.587Z,1.4
2023-04-26T10:04:40.692Z,1.2
2023-04-26T10:08:40.270Z,0.52
2023-04-26T10:12:40.624Z,3
2023-04-26T10:16:40.345Z,0.77
2023-04-26T10:20:40.488Z,1.02
2023-04-26T10:24:40.537Z,0.6
2023-04-26T10:28:39.751Z,1.1
2023-04-26T10:32:41.340Z,0.68
2023-04-26T10:36:40.439Z,0.62
2023-04-26T10:40:40.480Z,0.75
2023-04-26T10:44:40.772Z,1
2023-04-26T10:48:40.882Z,0.8
2023-04-26T10:52:40.602Z,0.9
2023-04-26T10:56:40.517Z,1.08
2023-04-26T11:00:40.642Z,1.15
2023-04-26T11:04:40.578Z,1.05
2023-04-26T11:08:39.866Z,0.95
2023-04-26T11:12:40.114Z,0.6
2023-04-26T11:16:41.058Z,0.62
2023-04-26T11:20:40.599Z,1.02
2023-04-26T11:24:40.613Z,1
2023-04-26T11:28:39.763Z,0.82
2023-04-26T11:32:40.641Z,0.82
2023-04-26T11:36:40.478Z,0.9
2023-04-26T11:40:40.831Z,1.2
2023-04-26T11:44:40.605Z,1.23
2023-04-26T11:48:40.606Z,1.42
2023-04-26T11:52:40.476Z,1.1
2023-04-26T11:56:40.399Z,0.8
2023-04-26T12:00:40.550Z,0.45
2023-04-26T12:04:41.105Z,0.57
2023-04-26T12:08:40.432Z,0.88
2023-04-26T12:12:41.288Z,1.15
2023-04-26T12:16:40.388Z,0.7
2023-04-26T12:20:40.976Z,1.52
2023-04-26T12:24:40.503Z,2.55
2023-04-26T12:28:41.072Z,0.88
2023-04-26T12:32:40.445Z,1.55
2023-04-26T12:36:40.331Z,1
2023-04-26T12:40:40.478Z,1.2
2023-04-26T12:44:40.898Z,1.05
2023-04-26T12:48:39.827Z,1.33
2023-04-26T12:52:40.668Z,1.15
2023-04-26T12:56:40.416Z,1.15
2023-04-26T13:00:41.667Z,1.08
2023-04-26T13:04:41.857Z,1.5
2023-04-26T13:08:40.536Z,1.35
2023-04-26T13:12:40.615Z,1.15
2023-04-26T13:16:40.535Z,1.1
2023-04-26T13:20:40.259Z,1.35
2023-04-26T13:24:40.991Z,0.6
2023-04-26T13:28:40.387Z,2.35
2023-04-26T13:32:40.611Z,6.55
2023-04-26T13:36:40.560Z,5.15
2023-04-26T13:40:40.581Z,1.65
2023-04-26T13:44:40.348Z,1.42
2023-04-26T13:48:40.865Z,1.92
2023-04-26T13:52:40.481Z,1.2
2023-04-26T13:56:39.729Z,1.77
2023-04-26T14:00:40.821Z,1.42
2023-04-26T14:04:41.097Z,0.95
2023-04-26T14:08:40.611Z,1.17
2023-04-26T14:12:41.173Z,0.98
2023-04-26T14:16:40.581Z,1.85
2023-04-26T14:20:41.251Z,1.1
2023-04-26T14:24:40.478Z,1
2023-04-26T14:28:40.491Z,1.15
2023-04-26T14:32:40.504Z,1.6
2023-04-26T14:36:40.339Z,1.2
2023-04-26T14:40:40.530Z,5.1
2023-04-26T14:44:40.571Z,2.17
2023-04-26T14:48:40.432Z,1.48
2023-04-26T14:52:40.435Z,1
2023-04-26T14:56:40.438Z,2.62
2023-04-26T15:00:40.694Z,1.77
2023-04-26T15:04:40.850Z,3.08
2023-04-26T15:08:40.494Z,2.55
2023-04-26T15:12:40.468Z,1.1
2023-04-26T15:16:40.307Z,1.58
2023-04-26T15:20:40.473Z,1.48
2023-04-26T15:24:40.472Z,1.4
2023-04-26T15:28:40.415Z,2.12
2023-04-26T15:32:39.680Z,1.7
2023-04-26T15:36:40.660Z,1.55
2023-04-26T15:40:40.664Z,1.37
2023-04-26T15:44:40.478Z,1.33
2023-04-26T15:48:40.561Z,1.05
2023-04-26T15:52:40.472Z,1.67
2023-04-26T15:56:40.657Z,1.15
2023-04-26T16:00:40.511Z,1.4
2023-04-26T16:04:41.024Z,1.42
2023-04-26T16:08:41.045Z,1.3
2023-04-26T16:12:40.489Z,1.42
2023-04-26T16:16:40.835Z,1.2
2023-04-26T16:20:40.553Z,1.75
2023-04-26T16:24:40.855Z,1.58
2023-04-26T16:28:40.447Z,1.52
2023-04-26T16:32:40.861Z,1.1
2023-04-26T16:36:40.671Z,1.7
2023-04-26T16:40:40.738Z,1.98
2023-04-26T16:44:40.642Z,1.42
2023-04-26T16:48:39.472Z,1.58
2023-04-26T16:52:40.467Z,2.47
2023-04-26T16:56:40.624Z,2.58
2023-04-26T17:00:40.473Z,1.8
2023-04-26T17:04:40.993Z,1.7
2023-04-26T17:08:39.875Z,1.8
2023-04-26T17:12:41.176Z,1.6
2023-04-26T17:16:40.362Z,1.85
2023-04-26T17:20:41.047Z,1.92
2023-04-26T17:24:41.061Z,1.52
2023-04-26T17:28:40.504Z,2.7
2023-04-26T17:32:41.822Z,2
2023-04-26T17:36:40.368Z,2.17
2023-04-26T17:40:40.520Z,2.03
2023-04-26T17:44:40.512Z,2.35
2023-04-26T17:48:40.474Z,2.75
2023-04-26T17:52:40.892Z,2.28
2023-04-26T17:56:40.573Z,1.8
2023-04-26T18:00:40.507Z,2.4
2023-04-26T18:04:40.886Z,2.1
2023-04-26T18:08:39.842Z,1.9
2023-04-26T18:12:41.415Z,2.1
2023-04-26T18:16:40.413Z,2.72
2023-04-26T18:20:40.528Z,1.9
2023-04-26T18:24:40.472Z,2.6
2023-04-26T18:28:40.769Z,2.33
2023-04-26T18:32:40.858Z,3.08
2023-04-26T18:36:40.465Z,1.95
2023-04-26T18:40:40.479Z,2.1
2023-04-26T18:44:40.499Z,2.3
2023-04-26T18:48:40.480Z,2.78
2023-04-26T18:52:40.735Z,2.37
2023-04-26T18:56:40.467Z,2.65
2023-04-26T19:00:40.744Z,3.28
2023-04-26T19:04:40.302Z,2.2
2023-04-26T19:08:41.142Z,2.28
2023-04-26T19:12:40.461Z,2.72
2023-04-26T19:16:40.549Z,2.6
2023-04-26T19:20:40.575Z,3.15
2023-04-26T19:24:40.514Z,3.1
2023-04-26T19:28:40.517Z,2.83
2023-04-26T19:32:40.626Z,3
2023-04-26T19:36:40.414Z,3.1
2023-04-26T19:40:40.428Z,2.85
2023-04-26T19:44:40.494Z,2.47
2023-04-26T19:48:40.605Z,2.28
2023-04-26T19:52:40.423Z,2.7
2023-04-26T19:56:40.448Z,3.15
2023-04-26T20:00:40.666Z,2.83
2023-04-26T20:04:40.517Z,2.75
2023-04-26T20:08:40.454Z,2.97
2023-04-26T20:12:40.353Z,2.8
2023-04-26T20:16:40.392Z,2.53
2023-04-26T20:20:41.021Z,3.33
2023-04-26T20:24:40.043Z,2.7
2023-04-26T20:28:40.908Z,2.5
2023-04-26T20:32:40.566Z,3.03
2023-04-26T20:36:40.426Z,2.6
2023-04-26T20:40:40.466Z,3
2023-04-26T20:44:40.465Z,3.07
2023-04-26T20:48:40.431Z,2.87
2023-04-26T20:52:40.557Z,2.6
2023-04-26T20:56:40.876Z,2.57
2023-04-26T21:00:40.426Z,3.6
2023-04-26T21:04:41.084Z,2.6
2023-04-26T21:08:40.429Z,2.4
2023-04-26T21:12:40.454Z,2.9
2023-04-26T21:16:40.467Z,2.53
2023-04-26T21:20:40.662Z,3.03
2023-04-26T21:24:40.388Z,2.57
2023-04-26T21:28:40.412Z,3.17
2023-04-26T21:32:40.552Z,3.03
2023-04-26T21:36:40.857Z,2.6
2023-04-26T21:40:40.513Z,3.33
2023-04-26T21:44:40.676Z,2.53
2023-04-26T21:48:40.229Z,2.63
2023-04-26T21:52:41.104Z,2.7
2023-04-26T21:56:40.440Z,3.23
2023-04-26T22:00:39.841Z,3
2023-04-26T22:04:41.096Z,3.67
2023-04-26T22:08:40.440Z,4.13
2023-04-26T22:12:41.006Z,3.37
2023-04-26T22:16:40.975Z,4.37
2023-04-26T22:20:40.501Z,3.33
2023-04-26T22:24:40.444Z,3.6
2023-04-26T22:28:40.550Z,3.13
2023-04-26T22:32:40.314Z,3.33
2023-04-26T22:36:40.406Z,3.2
2023-04-26T22:40:39.561Z,3.3
2023-04-26T22:44:40.476Z,3.33
2023-04-26T22:48:40.404Z,4.03
2023-04-26T22:52:40.488Z,2.7
2023-04-26T22:56:40.560Z,2.87
2023-04-26T23:00:40.506Z,2.8
2023-04-26T23:04:40.588Z,3.07
2023-04-26T23:08:40.411Z,3.5
2023-04-26T23:12:40.263Z,2.97
2023-04-26T23:16:40.415Z,4.83
2023-04-26T23:20:40.391Z,4.13
2023-04-26T23:24:40.893Z,3.23
2023-04-26T23:28:40.456Z,3.57
2023-04-26T23:32:40.925Z,2.97
2023-04-26T23:36:40.419Z,3.13
2023-04-26T23:40:40.491Z,3
2023-04-26T23:44:40.267Z,3.3
2023-04-26T23:48:40.836Z,3.07
2023-04-26T23:52:40.404Z,2.9
2023-04-26T23:56:40.606Z,2.27
